Time;durP1;ratioP1;P1;durP2;ratioP2;P2;SDS_P1;SDS_P2;PMS_P1;PMS_P2;Temp;Humidity;BMP_temperature;BMP_pressure;BME280_temperature;BME280_humidity;BME280_pressure;Samples;Min_cycle;Max_cycle;Signal;HPM_P1;HPM_P2
2022/11/11 00:01:16;;;;;;;;;;;;;;;;;;;;;
2022/11/11 00:03:52;;;;;;;10.52;6.03;;;;;;;;;;5046074;28;20065;-57
2022/11/11 00:06:48;;;;;;;5.10;4.63;;;;;;;;;;5045772;28;20311;-57
2022/11/11 00:09:21;;;;;;;9.05;5.78;;;;;;;;;;5069611;28;20446;-56
2022/11/11 00:12:09;;;;;;;5.22;4.40;;;;;;;;;;5108614;28;20439;-57
2022/11/11 00:15:03;;;;;;;7.25;5.63;;;;;;;;;;5108591;28;20016;-56
2022/11/11 00:26:26;;;;;;;8.07;5.32;;;;;;;;;;5108177;28;20117;-57
2022/11/11 00:40:49;;;;;;;5.50;5.00;;;;;;;;;;5108652;28;20089;-55
2022/11/11 00:43:33;;;;;;;9.32;5.45;;;;;;;;;;5094680;28;20138;-54
2022/11/11 00:51:53;;;;;;;;;;;;;;;;;;;;;
2022/11/11 00:57:51;;;;;;;9.55;5.07;;;;;;;;;;5078373;28;20054;-55
2022/11/11 01:00:37;;;;;;;6.40;4.95;;;;;;;;;;5108494;28;20024;-55
2022/11/11 01:03:06;;;;;;;6.63;4.85;;;;;;;;;;5107542;28;20024;-57
2022/11/11 01:05:51;;;;;;;6.03;5.43;;;;;;;;;;5108036;28;20032;-57
2022/11/11 01:11:22;;;;;;;6.60;5.13;;;;;;;;;;5097641;28;20039;-56
2022/11/11 01:14:01;;;;;;;6.32;5.28;;;;;;;;;;5107665;28;20047;-55
2022/11/11 01:16:37;;;;;;;8.35;5.05;;;;;;;;;;5107690;28;20076;-54
2022/11/11 01:25:14;;;;;;;12.70;4.53;;;;;;;;;;5108011;28;20031;-57
2022/11/11 01:27:57;;;;;;;;;;;;;;;;;;;;;
2022/11/11 01:31:04;;;;;;;7.20;4.55;;;;;;;;;;5092016;28;20048;-55
2022/11/11 01:33:53;;;;;;;7.28;4.60;;;;;;;;;;5055305;28;20054;-56
2022/11/11 01:36:35;;;;;;;7.22;5.43;;;;;;;;;;5089693;28;20043;-55
2022/11/11 01:39:30;;;;;;;;;;;;;;;;;;;;;
2022/11/11 01:42:11;;;;;;;8.40;4.82;;;;;;;;;;5104952;28;20066;-57
2022/11/11 01:44:47;;;;;;;8.40;4.15;;;;;;;;;;5111868;28;20047;-57
2022/11/11 01:49:17;;;;;;;10.73;6.15;;;;;;;;;;5093190;28;20032;-55
2022/11/11 01:53:43;;;;;;;6.55;4.80;;;;;;;;;;5001448;28;20042;-56
2022/11/11 01:56:15;;;;;;;6.90;5.10;;;;;;;;;;4992986;28;20046;-54
2022/11/11 01:59:11;;;;;;;7.25;4.80;;;;;;;;;;4993544;28;20082;-56
2022/11/11 02:02:16;;;;;;;5.53;4.07;;;;;;;;;;5009354;28;20026;-57
2022/11/11 02:08:52;;;;;;;;;;;;;;;;;;;;;
2022/11/11 02:14:41;;;;;;;9.15;5.22;;;;;;;;;;5111213;28;20111;-57
2022/11/11 02:17:42;;;;;;;5.93;4.90;;;;;;;;;;5068621;28;20036;-57
2022/11/11 02:20:22;;;;;;;;;;;;;;;;;;;;;
2022/11/11 02:23:11;;;;;;;4.95;4.47;;;;;;;;;;5048813;28;20060;-57
2022/11/11 02:25:50;;;;;;;8.32;5.00;;;;;;;;;;5068439;28;20032;-57
2022/11/11 02:28:23;;;;;;;8.77;4.85;;;;;;;;;;5068825;28;20068;-55
2022/11/11 02:30:50;;;;;;;6.68;5.00;;;;;;;;;;5051880;28;20029;-57
2022/11/11 02:33:35;;;;;;;;;;;;;;;;;;;;;
2022/11/11 02:36:23;;;;;;;6.93;4.93;;;;;;;;;;5040835;28;20073;-56
2022/11/11 02:39:11;;;;;;;6.50;5.13;;;;;;;;;;5063181;28;20033;-56
2022/11/11 02:41:59;;;;;;;4.38;3.50;;;;;;;;;;5068574;28;20048;-57
2022/11/11 02:47:39;;;;;;;5.78;4.78;;;;;;;;;;5033332;28;20048;-56
2022/11/11 02:50:17;;;;;;;5.80;4.20;;;;;;;;;;5048474;28;20038;-56
2022/11/11 02:57:06;;;;;;;8.13;4.55;;;;;;;;;;5054002;28;20047;-57
2022/11/11 02:59:20;;;;;;;6.00;4.75;;;;;;;;;;5106728;28;20063;-56
2022/11/11 03:02:18;;;;;;;5.47;4.35;;;;;;;;;;5110192;28;20054;-56
2022/11/11 03:04:54;;;;;;;4.85;4.18;;;;;;;;;;5110564;28;20125;-57
2022/11/11 03:07:42;;;;;;;4.70;3.92;;;;;;;;;;5091876;28;20047;-57
2022/11/11 03:10:29;;;;;;;5.82;3.85;;;;;;;;;;5110568;28;20072;-57
2022/11/11 03:13:07;;;;;;;10.25;5.03;;;;;;;;;;5110752;28;20023;-54
2022/11/11 03:15:45;;;;;;;7.45;4.72;;;;;;;;;;5110062;28;20063;-57
2022/11/11 03:21:37;;;;;;;5.57;4.53;;;;;;;;;;5096221;28;20062;-57
2022/11/11 03:25:36;;;;;;;5.38;4.20;;;;;;;;;;5092456;28;20047;-57
2022/11/11 03:27:40;;;;;;;7.53;4.88;;;;;;;;;;5101116;28;20053;-54
2022/11/11 03:30:13;;;;;;;6.97;4.43;;;;;;;;;;5089828;28;20024;-56
2022/11/11 03:33:36;;;;;;;4.75;4.03;;;;;;;;;;5072003;28;20044;-57
2022/11/11 03:38:14;;;;;;;10.18;4.30;;;;;;;;;;4989174;28;20058;-56
2022/11/11 03:39:48;;;;;;;5.32;3.92;;;;;;;;;;4987679;28;20057;-56
2022/11/11 03:42:43;;;;;;;;;;;;;;;;;;;;;
2022/11/11 03:48:08;;;;;;;5.30;3.80;;;;;;;;;;5090013;28;20047;-56
2022/11/11 03:50:59;;;;;;;6.22;3.97;;;;;;;;;;5089780;28;20027;-54
2022/11/11 03:53:43;;;;;;;;;;;;;;;;;;5089895;28;20347;-56
2022/11/11 03:56:19;;;;;;;5.07;3.67;;;;;;;;;;5088752;28;19909;-53
2022/11/11 04:10:58;;;;;;;8.60;4.40;;;;;;;;;;5088951;28;20078;-53
2022/11/11 04:16:15;;;;;;;9.43;3.05;;;;;;;;;;5063165;28;20107;-55
2022/11/11 04:22:06;;;;;;;4.43;3.45;;;;;;;;;;5089154;28;20058;-55
2022/11/11 04:27:36;;;;;;;5.88;3.70;;;;;;;;;;5088550;28;20078;-55
2022/11/11 04:30:25;;;;;;;7.05;3.80;;;;;;;;;;5089332;28;20368;-55
2022/11/11 04:33:01;;;;;;;8.02;4.28;;;;;;;;;;5065643;28;20052;-52
2022/11/11 04:35:40;;;;;;;7.20;3.97;;;;;;;;;;5057241;28;20563;-56
2022/11/11 04:41:26;;;;;;;5.10;4.00;;;;;;;;;;5074577;28;20100;-56
2022/11/11 04:47:03;;;;;;;4.50;3.75;;;;;;;;;;5075169;28;20054;-56
2022/11/11 04:50:14;;;;;;;5.25;4.35;;;;;;;;;;5074222;28;20039;-55
2022/11/11 05:10:50;;;;;;;;;;;;;;;;;;;;;
2022/11/11 05:22:50;;;;;;;4.85;3.42;;;;;;;;;;5078956;28;20027;-55
2022/11/11 05:25:29;;;;;;;4.90;3.78;;;;;;;;;;5079283;28;20037;-56
2022/11/11 05:28:07;;;;;;;7.53;4.13;;;;;;;;;;5082817;28;20492;-56
2022/11/11 05:34:05;;;;;;;10.25;5.22;;;;;;;;;;5063936;28;20035;-57
2022/11/11 05:36:51;;;;;;;5.03;3.92;;;;;;;;;;5078165;28;20033;-57
2022/11/11 05:39:43;;;;;;;5.82;4.03;;;;;;;;;;4960683;28;20496;-55
2022/11/11 05:42:41;;;;;;;6.75;4.03;;;;;;;;;;5078821;28;20540;-56
2022/11/11 05:51:26;;;;;;;4.40;3.20;;;;;;;;;;5077764;28;20094;-56
2022/11/11 05:54:12;;;;;;;4.85;3.30;;;;;;;;;;5078023;28;20452;-56
2022/11/11 06:00:04;;;;;;;;;;;;;;;;;;;;;
2022/11/11 06:03:27;;;;;;;4.38;3.35;;;;;;;;;;5077493;28;20373;-56
2022/11/11 06:09:22;;;;;;;5.28;4.47;;;;;;;;;;5036356;28;20061;-58
2022/11/11 06:11:55;;;;;;;3.95;3.40;;;;;;;;;;5054474;28;20505;-58
2022/11/11 06:15:09;;;;;;;6.68;4.40;;;;;;;;;;5077705;28;20047;-58
2022/11/11 06:24:20;;;;;;;8.10;3.95;;;;;;;;;;5025581;28;20059;-58
2022/11/11 06:30:08;;;;;;;5.53;4.32;;;;;;;;;;5074358;28;20127;-57
2022/11/11 06:33:08;;;;;;;5.55;4.05;;;;;;;;;;5055326;28;20111;-58
2022/11/11 06:42:06;;;;;;;4.05;3.45;;;;;;;;;;5067938;28;19909;-59
2022/11/11 06:44:41;;;;;;;6.18;4.13;;;;;;;;;;5049426;28;20498;-58
2022/11/11 06:53:35;;;;;;;5.78;4.57;;;;;;;;;;5057030;28;20037;-58
2022/11/11 06:59:35;;;;;;;6.07;3.80;;;;;;;;;;5057075;28;20064;-58
2022/11/11 07:02:18;;;;;;;;;;;;;;;;;;;;;
2022/11/11 07:05:08;;;;;;;6.97;5.13;;;;;;;;;;5059705;28;20040;-56
2022/11/11 07:07:53;;;;;;;8.00;5.15;;;;;;;;;;5058003;28;20068;-59
2022/11/11 07:10:30;;;;;;;6.03;5.43;;;;;;;;;;5075889;28;20029;-58
2022/11/11 07:13:09;;;;;;;5.20;4.60;;;;;;;;;;5076387;28;20028;-57
2022/11/11 07:16:14;;;;;;;6.63;5.05;;;;;;;;;;5076021;28;20044;-58
2022/11/11 07:18:51;;;;;;;4.32;3.88;;;;;;;;;;5076102;28;20032;-58
2022/11/11 07:21:39;;;;;;;5.82;4.35;;;;;;;;;;5075427;28;20028;-58
2022/11/11 07:24:23;;;;;;;6.38;4.35;;;;;;;;;;5076422;28;20522;-58
2022/11/11 07:27:23;;;;;;;;;;;;;;;;;;;;;
2022/11/11 07:39:22;;;;;;;5.65;4.40;;;;;;;;;;5066988;28;20031;-58
2022/11/11 07:41:55;;;;;;;5.22;4.07;;;;;;;;;;5030145;28;20037;-58
2022/11/11 07:44:35;;;;;;;4.07;3.50;;;;;;;;;;5057635;28;20506;-59
2022/11/11 07:47:27;;;;;;;6.07;4.72;;;;;;;;;;5076567;28;20366;-59
2022/11/11 07:50:23;;;;;;;5.47;4.47;;;;;;;;;;5075212;28;20078;-58
2022/11/11 07:56:23;;;;;;;5.30;3.92;;;;;;;;;;5041508;28;20484;-59
2022/11/11 07:59:22;;;;;;;5.55;4.55;;;;;;;;;;5075442;28;20033;-57
2022/11/11 08:02:36;;;;;;;6.43;4.80;;;;;;;;;;5075688;28;20039;-59
2022/11/11 08:13:49;;;;;;;6.20;4.47;;;;;;;;;;5063221;28;20038;-58
2022/11/11 08:25:25;;;;;;;5.38;4.88;;;;;;;;;;5084043;28;20036;-59
2022/11/11 08:28:12;;;;;;;4.90;4.00;;;;;;;;;;5046982;28;20067;-59
2022/11/11 08:30:53;;;;;;;6.35;5.30;;;;;;;;;;5051053;28;20061;-59
2022/11/11 08:33:49;;;;;;;6.18;4.80;;;;;;;;;;5065950;28;20053;-59
2022/11/11 08:36:18;;;;;;;4.95;3.85;;;;;;;;;;5066434;28;20096;-59
2022/11/11 08:38:53;;;;;;;7.53;4.82;;;;;;;;;;5050544;28;20118;-58
2022/11/11 08:41:44;;;;;;;6.75;4.40;;;;;;;;;;5050246;28;20080;-59
2022/11/11 08:44:43;;;;;;;6.95;4.13;;;;;;;;;;5066726;28;20175;-58
2022/11/11 08:47:42;;;;;;;10.57;5.20;;;;;;;;;;5066171;28;20414;-59
2022/11/11 08:50:32;;;;;;;7.82;4.85;;;;;;;;;;5066504;28;20033;-59
2022/11/11 08:53:21;;;;;;;6.93;4.38;;;;;;;;;;5049917;28;20040;-59
2022/11/11 08:56:15;;;;;;;5.22;4.00;;;;;;;;;;5066913;28;20306;-56
2022/11/11 09:05:16;;;;;;;6.83;5.53;;;;;;;;;;4998405;28;20206;-59
2022/11/11 09:14:14;;;;;;;5.82;5.22;;;;;;;;;;4992845;28;20511;-58
2022/11/11 09:23:52;;;;;;;6.60;4.50;;;;;;;;;;5081705;28;20036;-55
2022/11/11 09:26:46;;;;;;;5.93;4.95;;;;;;;;;;5012365;28;20034;-58
2022/11/11 09:29:24;;;;;;;6.20;4.43;;;;;;;;;;5012685;28;20437;-58
2022/11/11 09:41:23;;;;;;;7.57;5.30;;;;;;;;;;5009173;28;20038;-58
2022/11/11 09:47:22;;;;;;;7.50;4.22;;;;;;;;;;4942990;29;20119;-57
2022/11/11 09:53:33;;;;;;;8.27;5.68;;;;;;;;;;5000959;28;20038;-58
2022/11/11 09:56:13;;;;;;;8.02;5.30;;;;;;;;;;4990432;28;20105;-57
2022/11/11 09:59:18;;;;;;;7.53;4.13;;;;;;;;;;5011562;28;20034;-58
2022/11/11 10:02:15;;;;;;;7.05;5.05;;;;;;;;;;5010442;28;20052;-58
2022/11/11 10:05:00;;;;;;;5.07;4.18;;;;;;;;;;5036910;28;20509;-58
2022/11/11 10:07:45;;;;;;;7.40;5.47;;;;;;;;;;5076926;28;20024;-59
2022/11/11 10:10:41;;;;;;;6.80;5.57;;;;;;;;;;5077289;28;20087;-58
2022/11/11 10:13:32;;;;;;;8.43;4.47;;;;;;;;;;5058748;28;20032;-58
2022/11/11 10:16:17;;;;;;;5.63;3.65;;;;;;;;;;5057514;28;20036;-58
2022/11/11 10:19:04;;;;;;;5.40;3.63;;;;;;;;;;5076503;28;20036;-59
2022/11/11 10:21:43;;;;;;;4.82;4.00;;;;;;;;;;5076639;28;20089;-59
2022/11/11 10:24:54;;;;;;;;;;;;;;;;;;;;;
2022/11/11 10:30:52;;;;;;;6.40;4.90;;;;;;;;;;4997173;28;20040;-59
2022/11/11 10:33:50;;;;;;;8.10;4.43;;;;;;;;;;4998239;28;20484;-58
2022/11/11 10:36:35;;;;;;;8.35;4.32;;;;;;;;;;5014727;28;20026;-59
2022/11/11 10:39:16;;;;;;;5.53;4.13;;;;;;;;;;4998615;28;20085;-58
2022/11/11 10:41:48;;;;;;;;;;;;;;;;;;5014718;28;20026;-59
2022/11/11 10:44:36;;;;;;;7.63;3.78;;;;;;;;;;5014566;28;20036;-58
2022/11/11 10:47:27;;;;;;;5.13;4.00;;;;;;;;;;5014714;28;20038;-58
2022/11/11 10:50:12;;;;;;;5.82;4.38;;;;;;;;;;5021467;28;20050;-59
2022/11/11 10:52:51;;;;;;;6.60;4.18;;;;;;;;;;5079589;28;20037;-58
2022/11/11 10:55:32;;;;;;;7.30;4.07;;;;;;;;;;5090572;28;20084;-58
2022/11/11 10:58:22;;;;;;;6.35;4.00;;;;;;;;;;5060405;28;20054;-58
2022/11/11 11:00:56;;;;;;;5.28;3.45;;;;;;;;;;5042175;28;20461;-58
2022/11/11 11:03:23;;;;;;;4.65;3.65;;;;;;;;;;5088378;28;20048;-58
2022/11/11 11:06:23;;;;;;;5.25;4.00;;;;;;;;;;5047880;28;20069;-58
2022/11/11 11:09:02;;;;;;;6.60;4.47;;;;;;;;;;5031860;28;20033;-58
2022/11/11 11:11:54;;;;;;;7.00;3.70;;;;;;;;;;5046712;28;20045;-58
2022/11/11 11:14:41;;;;;;;5.32;3.55;;;;;;;;;;5021210;28;20037;-58
2022/11/11 11:17:40;;;;;;;5.88;3.65;;;;;;;;;;5008730;28;20128;-58
2022/11/11 11:29:53;;;;;;;5.07;3.95;;;;;;;;;;4911340;29;20057;-57
2022/11/11 11:32:41;;;;;;;6.97;3.88;;;;;;;;;;4914550;29;20055;-59
2022/11/11 11:35:08;;;;;;;9.02;4.25;;;;;;;;;;4930911;29;20083;-58
2022/11/11 11:38:00;;;;;;;5.95;4.20;;;;;;;;;;4931669;29;20410;-58
2022/11/11 11:41:01;;;;;;;;;;;;;;;;;;;;;
2022/11/11 11:46:51;;;;;;;5.40;4.07;;;;;;;;;;4969365;29;20458;-59
2022/11/11 11:49:35;;;;;;;7.03;4.18;;;;;;;;;;4988962;28;20034;-59
2022/11/11 11:52:32;;;;;;;7.50;5.43;;;;;;;;;;4989019;28;20120;-59
2022/11/11 11:59:29;;;;;;;4.75;4.25;;;;;;;;;;5030255;28;20084;-59
2022/11/11 12:11:24;;;;;;;4.00;3.28;;;;;;;;;;4935369;29;20068;-60
2022/11/11 12:17:24;;;;;;;6.00;3.22;;;;;;;;;;4968614;28;20042;-57
2022/11/11 12:20:18;;;;;;;7.30;3.45;;;;;;;;;;4974230;28;20030;-59
2022/11/11 12:23:03;;;;;;;4.32;3.03;;;;;;;;;;5055661;28;20041;-58
2022/11/11 12:25:54;;;;;;;6.97;3.53;;;;;;;;;;5073761;28;20024;-58
2022/11/11 12:28:30;;;;;;;;;;;;;;;;;;5071953;28;20032;-58
2022/11/11 12:31:31;;;;;;;;;;;;;;;;;;;;;
2022/11/11 12:37:36;;;;;;;5.15;3.22;;;;;;;;;;5082938;28;20163;-59
2022/11/11 12:40:18;;;;;;;6.38;3.05;;;;;;;;;;5084509;28;20028;-59
2022/11/11 12:46:20;;;;;;;4.60;3.53;;;;;;;;;;5070290;28;20032;-59
2022/11/11 12:49:02;;;;;;;5.53;3.88;;;;;;;;;;5083223;28;20031;-59
2022/11/11 12:51:42;;;;;;;5.05;3.90;;;;;;;;;;5082138;28;20013;-58
2022/11/11 12:57:34;;;;;;;8.65;6.10;;;;;;;;;;5064111;28;20062;-60
2022/11/11 13:00:22;;;;;;;11.48;6.78;;;;;;;;;;5062279;28;20060;-59
2022/11/11 13:03:23;;;;;;;13.05;8.10;;;;;;;;;;5081203;28;20028;-59
2022/11/11 13:06:07;;;;;;;14.93;10.55;;;;;;;;;;5077926;28;20444;-59
2022/11/11 13:08:54;;;;;;;8.98;5.75;;;;;;;;;;5074055;28;20033;-59
2022/11/11 13:11:45;;;;;;;6.43;4.88;;;;;;;;;;5055504;28;20032;-59
2022/11/11 13:14:32;;;;;;;8.23;5.55;;;;;;;;;;5073719;28;20029;-59
2022/11/11 13:20:08;;;;;;;5.10;4.38;;;;;;;;;;5074630;28;20068;-59
2022/11/11 13:22:41;;;;;;;6.68;5.57;;;;;;;;;;5073927;28;20024;-59
2022/11/11 13:25:18;;;;;;;7.78;6.20;;;;;;;;;;5064911;28;20037;-60
2022/11/11 13:28:12;;;;;;;6.25;4.63;;;;;;;;;;5072157;28;20025;-59
2022/11/11 13:30:41;;;;;;;7.75;5.22;;;;;;;;;;5057206;28;20036;-59
2022/11/11 13:33:30;;;;;;;4.55;3.72;;;;;;;;;;5074904;28;20110;-59
2022/11/11 13:36:22;;;;;;;4.32;3.03;;;;;;;;;;5074545;28;20064;-59
2022/11/11 13:39:14;;;;;;;5.50;4.28;;;;;;;;;;5081291;28;20029;-59
2022/11/11 13:41:57;;;;;;;4.97;4.15;;;;;;;;;;5048218;28;20436;-59
2022/11/11 13:45:01;;;;;;;10.60;6.63;;;;;;;;;;5015799;28;20030;-60
2022/11/11 13:47:41;;;;;;;7.10;5.05;;;;;;;;;;4997887;28;20503;-59
2022/11/11 13:50:30;;;;;;;6.80;5.07;;;;;;;;;;5015436;28;20029;-59
2022/11/11 13:53:17;;;;;;;5.93;4.55;;;;;;;;;;5016014;28;20053;-58
2022/11/11 14:02:28;;;;;;;;;;;;;;;;;;;;;
2022/11/11 14:08:15;;;;;;;10.23;4.40;;;;;;;;;;5019408;28;20514;-58
2022/11/11 14:11:13;;;;;;;5.60;3.92;;;;;;;;;;5076530;28;20100;-59
2022/11/11 14:14:09;;;;;;;4.68;3.13;;;;;;;;;;5058003;28;20087;-58
2022/11/11 14:17:23;;;;;;;4.78;3.33;;;;;;;;;;5075946;28;20041;-58
2022/11/11 14:23:09;;;;;;;4.80;3.25;;;;;;;;;;4935991;28;20035;-58
2022/11/11 14:29:00;;;;;;;5.80;3.38;;;;;;;;;;5073494;28;20044;-59
2022/11/11 14:31:44;;;;;;;4.07;3.22;;;;;;;;;;5076278;28;20554;-58
2022/11/11 14:47:16;;;;;;;9.57;3.60;;;;;;;;;;4975660;28;20109;-59
2022/11/11 14:50:10;;;;;;;5.10;3.03;;;;;;;;;;5078800;28;20543;-58
2022/11/11 14:56:23;;;;;;;;;;;;;;;;;;;;;
2022/11/11 14:59:13;;;;;;;7.47;3.80;;;;;;;;;;4985138;28;20044;-58
2022/11/11 15:04:53;;;;;;;3.47;2.63;;;;;;;;;;5012092;28;20031;-59
2022/11/11 15:11:13;;;;;;;4.00;2.78;;;;;;;;;;5087833;28;20094;-59
2022/11/11 15:14:07;;;;;;;5.30;3.47;;;;;;;;;;5050571;28;20040;-58
2022/11/11 15:17:11;;;;;;;6.55;3.72;;;;;;;;;;5075573;28;20230;-59
2022/11/11 15:19:58;;;;;;;5.03;3.00;;;;;;;;;;5096356;28;20054;-60
2022/11/11 15:22:42;;;;;;;5.75;3.13;;;;;;;;;;5096226;28;20086;-58
2022/11/11 15:25:48;;;;;;;6.80;2.90;;;;;;;;;;5096840;28;20107;-59
2022/11/11 15:34:48;;;;;;;3.97;2.88;;;;;;;;;;5071549;28;20046;-58
2022/11/11 15:37:46;;;;;;;5.82;2.50;;;;;;;;;;5078212;28;20138;-59
2022/11/11 15:46:43;;;;;;;8.38;3.42;;;;;;;;;;5091605;28;20043;-58
2022/11/11 15:49:39;;;;;;;4.32;2.90;;;;;;;;;;5095844;28;20034;-59
2022/11/11 15:52:44;;;;;;;4.18;2.95;;;;;;;;;;5034897;28;20036;-59
2022/11/11 15:55:36;;;;;;;5.32;2.55;;;;;;;;;;5023494;28;20083;-57
2022/11/11 16:01:16;;;;;;;5.72;2.92;;;;;;;;;;5042301;28;20025;-58
2022/11/11 16:03:44;;;;;;;5.47;3.08;;;;;;;;;;5034433;28;20033;-59
2022/11/11 16:06:38;;;;;;;5.75;2.58;;;;;;;;;;5035266;28;20029;-60
2022/11/11 16:09:18;;;;;;;4.97;4.00;;;;;;;;;;5052129;28;20074;-58
2022/11/11 16:12:01;;;;;;;4.47;3.17;;;;;;;;;;5052812;28;20493;-58
2022/11/11 16:14:47;;;;;;;8.85;3.35;;;;;;;;;;5035072;28;20378;-58
2022/11/11 16:17:43;;;;;;;5.85;3.53;;;;;;;;;;5012819;28;20037;-58
2022/11/11 16:20:37;;;;;;;4.28;3.20;;;;;;;;;;5012946;28;20077;-58
2022/11/11 16:23:09;;;;;;;4.13;3.53;;;;;;;;;;4996156;28;20087;-59
2022/11/11 16:26:20;;;;;;;;;;;;;;;;;;;;;
2022/11/11 16:29:03;;;;;;;5.78;4.10;;;;;;;;;;5032888;28;20037;-58
2022/11/11 16:31:53;;;;;;;8.70;3.78;;;;;;;;;;5037988;28;20025;-60
2022/11/11 16:34:38;;;;;;;3.80;3.35;;;;;;;;;;5051470;28;20044;-58
2022/11/11 16:37:12;;;;;;;3.83;2.95;;;;;;;;;;5051972;28;20406;-58
2022/11/11 16:42:58;;;;;;;4.22;3.30;;;;;;;;;;5036138;28;20134;-59
2022/11/11 16:45:50;;;;;;;6.38;3.42;;;;;;;;;;5091538;28;20081;-59
2022/11/11 16:48:47;;;;;;;5.50;3.22;;;;;;;;;;5024723;28;20553;-59
2022/11/11 16:51:23;;;;;;;5.85;3.65;;;;;;;;;;5034226;28;20102;-59
2022/11/11 16:54:15;;;;;;;6.95;3.97;;;;;;;;;;5031244;28;20040;-59
2022/11/11 16:57:02;;;;;;;5.28;3.08;;;;;;;;;;5025444;28;20041;-59
2022/11/11 16:59:58;;;;;;;3.63;2.42;;;;;;;;;;5019272;28;20060;-59
2022/11/11 17:03:12;;;;;;;;;;;;;;;;;;;;;
2022/11/11 17:06:00;;;;;;;4.50;3.25;;;;;;;;;;4992454;28;20068;-59
2022/11/11 17:08:54;;;;;;;9.15;3.75;;;;;;;;;;5045610;28;20428;-59
2022/11/11 17:14:41;;;;;;;5.43;3.08;;;;;;;;;;5093701;28;20526;-60
2022/11/11 17:17:20;;;;;;;6.47;3.35;;;;;;;;;;5094862;28;20376;-59
2022/11/11 17:19:57;;;;;;;4.53;2.88;;;;;;;;;;5060897;28;20067;-59
2022/11/11 17:23:07;;;;;;;;;;;;;;;;;;;;;
2022/11/11 17:29:11;;;;;;;5.53;3.75;;;;;;;;;;5031358;28;20040;-59
2022/11/11 17:32:05;;;;;;;9.80;4.28;;;;;;;;;;5023091;28;20478;-59
2022/11/11 17:34:55;;;;;;;5.60;4.10;;;;;;;;;;5031250;28;20518;-59
2022/11/11 17:43:37;;;;;;;8.15;4.95;;;;;;;;;;5031736;28;20083;-59
2022/11/11 17:49:40;;;;;;;9.80;4.65;;;;;;;;;;5036873;28;20035;-59
2022/11/11 17:52:07;;;;;;;;;;;;;;;;;;5095529;28;20032;-59
2022/11/11 17:55:13;;;;;;;12.55;4.28;;;;;;;;;;5086036;28;19908;-59
2022/11/11 17:58:03;;;;;;;7.85;4.68;;;;;;;;;;4992873;28;20569;-58
2022/11/11 18:04:03;;;;;;;5.03;3.60;;;;;;;;;;4992387;28;20111;-59
2022/11/11 18:06:32;;;;;;;6.50;4.07;;;;;;;;;;4882016;28;20036;-59
2022/11/11 18:09:08;;;;;;;10.40;4.13;;;;;;;;;;4976940;28;20023;-59
2022/11/11 18:11:59;;;;;;;5.28;3.83;;;;;;;;;;5057670;28;20039;-59
2022/11/11 18:14:28;;;;;;;;;;;;;;;;;;5094177;28;20020;-59
2022/11/11 18:17:41;;;;;;;;;;;;;;;;;;;;;
2022/11/11 18:20:34;;;;;;;5.78;4.22;;;;;;;;;;5093903;28;20432;-59
2022/11/11 18:23:18;;;;;;;4.88;3.72;;;;;;;;;;5074809;28;20515;-59
2022/11/11 18:26:16;;;;;;;;;;;;;;;;;;;;;
2022/11/11 18:28:57;;;;;;;8.25;4.60;;;;;;;;;;5097188;28;20042;-59
2022/11/11 18:32:00;;;;;;;7.53;4.88;;;;;;;;;;5096746;28;20492;-59
2022/11/11 18:37:36;;;;;;;8.75;5.68;;;;;;;;;;5075750;28;20040;-59
2022/11/11 18:40:30;;;;;;;;;;;;;;;;;;;;;
2022/11/11 18:43:28;;;;;;;8.65;5.90;;;;;;;;;;5077162;28;20393;-58
2022/11/11 18:46:11;;;;;;;9.27;6.40;;;;;;;;;;5076976;28;20024;-59
2022/11/11 18:49:03;;;;;;;9.10;6.95;;;;;;;;;;5034683;28;20041;-59
2022/11/11 18:54:51;;;;;;;9.98;6.82;;;;;;;;;;5034164;28;20036;-59
2022/11/11 18:57:26;;;;;;;12.13;5.82;;;;;;;;;;5034157;28;20494;-59
2022/11/11 19:00:21;;;;;;;11.13;7.80;;;;;;;;;;5034206;28;20026;-57
2022/11/11 19:06:21;;;;;;;9.98;7.10;;;;;;;;;;5023861;28;20087;-59
2022/11/11 19:08:57;;;;;;;7.60;5.88;;;;;;;;;;5034237;28;20034;-59
2022/11/11 19:14:52;;;;;;;11.90;6.50;;;;;;;;;;4955594;29;20081;-59
2022/11/11 19:17:33;;;;;;;6.93;6.18;;;;;;;;;;4956316;29;20164;-59
2022/11/11 19:20:02;;;;;;;;;;;;;;;;;;5004481;28;20569;-59
2022/11/11 19:22:40;;;;;;;6.65;5.88;;;;;;;;;;5017490;28;20008;-59
2022/11/11 19:25:42;;;;;;;7.50;6.30;;;;;;;;;;5034468;28;20172;-59
2022/11/11 19:31:57;;;;;;;7.90;6.28;;;;;;;;;;5036777;28;20413;-58
2022/11/11 19:34:34;;;;;;;9.23;6.78;;;;;;;;;;5024713;28;20099;-59
2022/11/11 19:37:41;;;;;;;6.90;6.20;;;;;;;;;;5073840;28;20489;-59
2022/11/11 19:40:46;;;;;;;7.00;5.25;;;;;;;;;;5075927;28;20482;-59
2022/11/11 19:43:15;;;;;;;7.32;5.35;;;;;;;;;;5075600;28;20028;-59
2022/11/11 19:48:57;;;;;;;9.27;7.07;;;;;;;;;;5062401;28;20374;-59
2022/11/11 19:54:37;;;;;;;10.32;6.43;;;;;;;;;;5013355;28;20030;-58
2022/11/11 19:57:22;;;;;;;11.60;7.38;;;;;;;;;;5013291;28;20042;-58
2022/11/11 20:00:09;;;;;;;9.07;7.20;;;;;;;;;;5013724;28;20045;-59
2022/11/11 20:02:49;;;;;;;13.10;7.15;;;;;;;;;;5014392;28;20022;-59
2022/11/11 20:14:39;;;;;;;10.15;7.20;;;;;;;;;;5052942;28;20446;-59
2022/11/11 20:17:19;;;;;;;11.88;8.38;;;;;;;;;;5076338;28;20043;-59
2022/11/11 20:20:23;;;;;;;14.13;9.52;;;;;;;;;;5058141;28;20492;-59
2022/11/11 20:23:18;;;;;;;13.65;10.73;;;;;;;;;;5074886;28;20073;-59
2022/11/11 20:25:58;;;;;;;9.02;7.43;;;;;;;;;;5017181;28;20030;-59
2022/11/11 20:28:56;;;;;;;8.90;7.70;;;;;;;;;;5012663;28;20395;-60
2022/11/11 20:41:07;;;;;;;8.20;7.10;;;;;;;;;;4973253;28;20437;-57
2022/11/11 20:46:39;;;;;;;11.30;8.38;;;;;;;;;;5061577;28;20094;-59
2022/11/11 20:49:26;;;;;;;8.68;7.00;;;;;;;;;;5094923;28;20039;-58
2022/11/11 20:52:15;;;;;;;9.70;6.88;;;;;;;;;;5094320;28;20076;-59
2022/11/11 20:54:58;;;;;;;8.05;7.25;;;;;;;;;;5092572;28;20125;-59
2022/11/11 20:57:42;;;;;;;8.15;6.43;;;;;;;;;;5076098;28;20040;-59
2022/11/11 21:00:46;;;;;;;8.93;7.10;;;;;;;;;;5077035;28;20490;-59
2022/11/11 21:03:32;;;;;;;8.00;6.72;;;;;;;;;;5082661;28;20039;-59
2022/11/11 21:09:27;;;;;;;8.27;7.35;;;;;;;;;;5094497;28;20035;-59
2022/11/11 21:12:11;;;;;;;7.50;6.57;;;;;;;;;;5059386;28;20032;-58
2022/11/11 21:17:38;;;;;;;12.65;7.28;;;;;;;;;;5094210;28;20099;-60
2022/11/11 21:23:36;;;;;;;6.97;6.28;;;;;;;;;;5072363;28;20073;-59
2022/11/11 21:29:15;;;;;;;9.48;7.25;;;;;;;;;;5080576;28;20057;-59
2022/11/11 21:35:27;;;;;;;;;;;;;;;;;;;;;
2022/11/11 21:41:35;;;;;;;9.18;7.30;;;;;;;;;;5079401;28;20024;-58
2022/11/11 21:44:48;;;;;;;8.70;7.05;;;;;;;;;;5051523;28;20029;-58
2022/11/11 21:47:16;;;;;;;10.32;7.00;;;;;;;;;;4953418;29;20039;-58
2022/11/11 21:58:54;;;;;;;13.65;7.75;;;;;;;;;;5036276;28;20044;-58
2022/11/11 22:01:45;;;;;;;8.30;6.72;;;;;;;;;;5061750;28;20059;-58
2022/11/11 22:04:29;;;;;;;9.20;6.68;;;;;;;;;;5067806;28;20101;-57
2022/11/11 22:10:14;;;;;;;7.90;6.70;;;;;;;;;;5101711;28;20484;-58
2022/11/11 22:13:01;;;;;;;7.90;6.97;;;;;;;;;;5072700;28;20028;-58
2022/11/11 22:15:55;;;;;;;6.35;5.63;;;;;;;;;;5110653;28;20077;-58
2022/11/11 22:21:24;;;;;;;9.13;6.85;;;;;;;;;;5111226;28;20477;-58
2022/11/11 22:23:55;;;;;;;8.32;6.63;;;;;;;;;;5092620;28;20130;-58
2022/11/11 22:29:44;;;;;;;8.95;6.40;;;;;;;;;;5108775;28;20066;-58
2022/11/11 22:38:35;;;;;;;10.90;8.73;;;;;;;;;;5041560;28;20045;-58
2022/11/11 22:41:24;;;;;;;9.82;6.60;;;;;;;;;;5069864;28;20021;-58
2022/11/11 22:44:06;;;;;;;9.23;5.78;;;;;;;;;;5069959;28;20029;-59
2022/11/11 22:46:44;;;;;;;8.85;7.28;;;;;;;;;;5069549;28;20091;-58
2022/11/11 22:50:01;;;;;;;;;;;;;;;;;;;;;
2022/11/11 22:52:40;;;;;;;10.68;7.15;;;;;;;;;;4969747;29;20067;-58
2022/11/11 22:55:18;;;;;;;7.03;6.32;;;;;;;;;;4936429;29;20043;-58
2022/11/11 23:04:03;;;;;;;9.20;6.63;;;;;;;;;;5069326;28;20083;-58
2022/11/11 23:06:48;;;;;;;8.52;6.03;;;;;;;;;;5068400;28;20036;-58
2022/11/11 23:09:39;;;;;;;;;;;;;;;;;;;;;
2022/11/11 23:12:24;;;;;;;8.82;6.50;;;;;;;;;;5068494;28;20063;-58
2022/11/11 23:15:10;;;;;;;10.13;7.80;;;;;;;;;;5067748;28;20037;-58
2022/11/11 23:23:58;;;;;;;10.45;6.93;;;;;;;;;;5067914;28;20032;-58
2022/11/11 23:26:45;;;;;;;8.50;7.13;;;;;;;;;;5050906;28;20045;-57
2022/11/11 23:29:18;;;;;;;7.18;6.03;;;;;;;;;;5068475;28;20021;-58
2022/11/11 23:32:09;;;;;;;9.35;6.95;;;;;;;;;;5068033;28;20024;-58
2022/11/11 23:34:45;;;;;;;7.95;6.28;;;;;;;;;;5068665;28;20112;-58
2022/11/11 23:44:28;;;;;;;6.97;5.20;;;;;;;;;;5050576;28;20082;-58
2022/11/11 23:46:54;;;;;;;9.18;7.18;;;;;;;;;;4985241;28;20037;-57
2022/11/11 23:49:27;;;;;;;13.00;6.45;;;;;;;;;;4985654;28;20039;-58
2022/11/11 23:52:01;;;;;;;9.48;6.85;;;;;;;;;;5051492;28;20096;-58
2022/11/11 23:54:49;;;;;;;;;;;;;;;;;;;;;
2022/11/11 23:57:48;;;;;;;7.80;6.50;;;;;;;;;;5083213;28;20513;-58
